Time;durP1;ratioP1;P1;durP2;ratioP2;P2;SDS_P1;SDS_P2;PMS_P1;PMS_P2;Temp;Humidity;BMP_temperature;BMP_pressure;BME280_temperature;BME280_humidity;BME280_pressure;Samples;Min_cycle;Max_cycle;Signal;HPM_P1;HPM_P2
2021/10/04 00:14:04;;;;;;;0.63;0.30;;;22.40;59.70;;;;;;31383303;28;20048;-42
2021/10/04 00:29:06;;;;;;;0.10;0.10;;;22.40;59.70;;;;;;31383421;28;20049;-40
2021/10/04 00:44:08;;;;;;;0.20;0.20;;;22.40;59.70;;;;;;31387724;28;20049;-40
2021/10/04 00:59:10;;;;;;;0.20;0.20;;;22.40;59.60;;;;;;31385544;28;20065;-40
2021/10/04 01:14:13;;;;;;;0.10;0.10;;;22.30;59.70;;;;;;31384401;28;20065;-41
2021/10/04 01:29:16;;;;;;;0.50;0.10;;;22.40;59.90;;;;;;31382506;28;20045;-40
2021/10/04 01:44:18;;;;;;;0.10;0.10;;;22.30;59.80;;;;;;31377139;28;20054;-40
2021/10/04 01:59:20;;;;;;;0.10;0.10;;;22.40;59.80;;;;;;31380039;28;20038;-40
2021/10/04 02:14:22;;;;;;;0.10;0.10;;;22.30;59.80;;;;;;31376493;28;20067;-40
2021/10/04 02:29:24;;;;;;;0.10;0.10;;;22.30;60.00;;;;;;31376508;28;20048;-42
2021/10/04 02:44:26;;;;;;;0.10;0.10;;;22.30;60.20;;;;;;31376476;28;20061;-39
2021/10/04 02:59:28;;;;;;;0.10;0.10;;;22.30;60.10;;;;;;31370808;28;20052;-41
2021/10/04 03:14:30;;;;;;;0.03;0.03;;;22.30;60.10;;;;;;31379761;28;20053;-42
2021/10/04 03:29:32;;;;;;;0.10;0.10;;;22.30;60.00;;;;;;31394203;28;20045;-47
2021/10/04 03:44:34;;;;;;;0.10;0.10;;;22.70;59.60;;;;;;31385175;28;20137;-47
2021/10/04 03:59:37;;;;;;;0.00;0.00;;;23.30;58.30;;;;;;31386712;28;20057;-41
2021/10/04 04:14:39;;;;;;;0.10;0.10;;;23.10;58.70;;;;;;31391242;28;20132;-42
2021/10/04 04:29:42;;;;;;;1.92;0.10;;;23.00;59.00;;;;;;31388825;28;20073;-42
2021/10/04 04:44:44;;;;;;;1.10;0.10;;;22.90;59.00;;;;;;31386564;28;20077;-43
2021/10/04 04:59:46;;;;;;;11.40;2.40;;;22.80;59.10;;;;;;31378682;28;20038;-45
2021/10/04 05:14:48;;;;;;;33.33;15.00;;;22.60;59.10;;;;;;31280120;28;20100;-52
2021/10/04 05:29:50;;;;;;;17.83;9.13;;;22.50;57.30;;;;;;31253275;28;20069;-45
2021/10/04 05:44:52;;;;;;;42.45;25.35;;;22.50;56.90;;;;;;31254543;28;20077;-44
2021/10/04 05:59:55;;;;;;;45.70;29.52;;;22.40;56.30;;;;;;31253767;28;20105;-43
2021/10/04 06:14:59;;;;;;;27.33;20.13;;;22.40;56.50;;;;;;31249561;28;20070;-51
2021/10/04 06:30:02;;;;;;;24.70;17.48;;;22.40;56.50;;;;;;31229877;28;20101;-49
2021/10/04 06:45:05;;;;;;;33.20;24.35;;;22.40;56.30;;;;;;31247474;28;20220;-47
2021/10/04 07:00:19;;;;;;;39.25;29.08;;;22.30;56.50;;;;;;31216196;28;20043;-51
2021/10/04 07:15:22;;;;;;;37.90;26.45;;;22.30;56.30;;;;;;30797538;28;10000200;-45
2021/10/04 07:30:26;;;;;;;35.60;23.25;;;22.20;56.20;;;;;;31140786;28;20073;-46
2021/10/04 07:45:31;;;;;;;31.58;24.65;;;22.20;56.50;;;;;;31139043;28;20059;-44
2021/10/04 08:00:33;;;;;;;79.28;46.67;;;22.20;56.70;;;;;;31133659;28;20044;-45
2021/10/04 08:15:38;;;;;;;45.60;29.35;;;22.10;55.30;;;;;;31255539;28;20046;-48
2021/10/04 08:30:40;;;;;;;37.05;26.67;;;22.10;56.70;;;;;;31260519;28;20054;-49
2021/10/04 08:45:44;;;;;;;33.33;25.65;;;22.00;56.80;;;;;;31256976;28;20145;-49
2021/10/04 09:00:47;;;;;;;46.15;33.90;;;22.00;56.80;;;;;;31254074;28;20042;-39
2021/10/04 09:15:51;;;;;;;31.90;21.83;;;22.00;53.50;;;;;;31165993;28;20046;-45
2021/10/04 09:30:59;;;;;;;16.67;12.73;;;21.90;54.60;;;;;;31135146;28;20053;-45
2021/10/04 09:46:04;;;;;;;11.27;9.43;;;22.40;50.70;;;;;;31137199;28;20065;-44
2021/10/04 10:01:06;;;;;;;15.38;9.52;;;22.70;50.60;;;;;;31229950;28;20049;-47
2021/10/04 10:16:21;;;;;;;34.22;22.55;;;22.60;51.20;;;;;;31247781;28;20056;-48
2021/10/04 10:31:23;;;;;;;35.90;26.95;;;22.60;51.70;;;;;;31262663;28;20053;-45
2021/10/04 10:46:49;;;;;;;22.48;16.38;;;22.50;52.40;;;;;;31271436;28;20055;-43
2021/10/04 11:01:52;;;;;;;31.50;21.33;;;22.40;51.60;;;;;;30982609;28;10000688;-45
2021/10/04 11:17:00;;;;;;;36.45;26.58;;;22.30;51.00;;;;;;31149184;28;20050;-40
2021/10/04 11:32:11;;;;;;;23.83;17.88;;;22.40;50.80;;;;;;31149914;28;20042;-42
2021/10/04 11:47:14;;;;;;;18.42;12.77;;;22.20;51.00;;;;;;31148036;28;20057;-43
2021/10/04 12:02:23;;;;;;;14.82;10.70;;;22.30;50.00;;;;;;31129836;28;20119;-41
2021/10/04 12:17:36;;;;;;;12.02;8.80;;;22.40;50.00;;;;;;31141636;28;20055;-45
2021/10/04 12:32:46;;;;;;;10.25;7.72;;;22.40;50.50;;;;;;31191098;28;20060;-43
2021/10/04 12:48:01;;;;;;;4.78;3.50;;;22.30;50.90;;;;;;31220723;28;20061;-46
2021/10/04 13:03:05;;;;;;;3.95;2.42;;;22.10;52.20;;;;;;31260658;28;20041;-41
2021/10/04 13:18:07;;;;;;;56.88;41.53;;;22.50;52.60;;;;;;31381743;28;20105;-45
2021/10/04 13:33:10;;;;;;;50.30;34.47;;;23.00;52.00;;;;;;31029054;28;10000426;-48
2021/10/04 13:48:12;;;;;;;36.95;27.45;;;23.00;52.20;;;;;;31374526;28;20115;-43
2021/10/04 14:03:14;;;;;;;31.27;24.15;;;23.00;52.70;;;;;;31249962;28;20042;-41
2021/10/04 14:18:17;;;;;;;30.05;20.33;;;22.90;53.20;;;;;;31130195;28;20364;-44
2021/10/04 14:33:20;;;;;;;30.17;21.40;;;22.90;53.10;;;;;;31131510;28;20042;-41
2021/10/04 14:48:22;;;;;;;51.30;36.97;;;22.80;53.20;;;;;;31157771;28;20241;-46
2021/10/04 15:03:24;;;;;;;23.15;16.67;;;22.70;49.80;;;;;;31191074;28;20123;-44
2021/10/04 15:18:26;;;;;;;20.88;13.70;;;22.70;53.40;;;;;;31286107;28;20046;-46
2021/10/04 15:33:29;;;;;;;41.75;15.98;;;22.70;53.50;;;;;;30862534;28;10000146;-44
2021/10/04 15:48:32;;;;;;;25.83;11.90;;;22.50;52.00;;;;;;31235156;28;20080;-47
2021/10/04 16:03:35;;;;;;;18.25;8.88;;;22.50;53.00;;;;;;31264344;28;20509;-46
2021/10/04 16:18:37;;;;;;;18.08;7.88;;;22.50;52.40;;;;;;31254640;28;20042;-42
2021/10/04 16:33:39;;;;;;;17.95;8.45;;;22.50;52.30;;;;;;31257170;28;20065;-49
2021/10/04 16:48:43;;;;;;;32.33;7.25;;;23.50;53.60;;;;;;31248674;28;20129;-48
2021/10/04 17:04:04;;;;;;;20.30;6.10;;;23.50;49.80;;;;;;31248815;28;20097;-41
2021/10/04 17:19:08;;;;;;;24.02;5.65;;;22.80;53.70;;;;;;31259816;28;20049;-38
2021/10/04 17:34:10;;;;;;;19.73;4.95;;;22.60;53.90;;;;;;31252443;28;20038;-47
2021/10/04 17:49:12;;;;;;;18.00;4.38;;;22.60;55.10;;;;;;31241438;28;20046;-49
2021/10/04 18:04:15;;;;;;;18.05;4.30;;;22.60;55.40;;;;;;31141148;28;20053;-48
2021/10/04 18:19:22;;;;;;;14.98;4.68;;;22.60;55.70;;;;;;31149149;28;20054;-42
2021/10/04 18:34:37;;;;;;;8.45;3.40;;;22.50;56.30;;;;;;31229430;28;20055;-43
2021/10/04 18:49:39;;;;;;;9.93;4.65;;;22.50;55.50;;;;;;31262518;28;20092;-51
2021/10/04 19:04:41;;;;;;;9.85;4.32;;;22.50;56.30;;;;;;31271137;28;20053;-49
2021/10/04 19:19:43;;;;;;;11.45;3.35;;;22.40;56.10;;;;;;31269184;28;20045;-50
2021/10/04 19:34:46;;;;;;;6.68;2.80;;;22.40;56.20;;;;;;31269283;28;20033;-45
2021/10/04 19:49:48;;;;;;;10.75;4.28;;;22.40;56.20;;;;;;31262468;28;20065;-45
2021/10/04 20:04:50;;;;;;;6.55;2.75;;;22.30;56.50;;;;;;31259772;28;20526;-46
2021/10/04 20:19:52;;;;;;;8.55;3.88;;;22.30;57.50;;;;;;31261253;28;20053;-54
2021/10/04 20:34:55;;;;;;;10.95;3.08;;;22.40;56.70;;;;;;31258109;28;20072;-51
2021/10/04 20:49:57;;;;;;;5.30;2.53;;;22.80;57.50;;;;;;31261634;28;20066;-45
2021/10/04 21:04:59;;;;;;;6.47;3.10;;;23.00;57.80;;;;;;31259675;28;20065;-45
2021/10/04 21:20:01;;;;;;;4.82;2.35;;;22.90;57.40;;;;;;31254051;28;20120;-55
2021/10/04 21:35:03;;;;;;;5.53;2.75;;;22.90;56.80;;;;;;31255212;28;20109;-45
2021/10/04 21:50:07;;;;;;;3.40;2.25;;;22.80;56.80;;;;;;31216474;28;20058;-54
2021/10/04 22:20:21;;;;;;;4.03;2.30;;;22.70;56.60;;;;;;31128910;28;20046;-52
2021/10/04 22:35:23;;;;;;;6.20;2.35;;;22.60;56.40;;;;;;31126946;28;20093;-46
2021/10/04 22:50:26;;;;;;;3.90;2.45;;;22.50;56.90;;;;;;31130078;28;20069;-53
2021/10/04 23:05:28;;;;;;;3.10;1.92;;;22.50;57.00;;;;;;31128779;28;20050;-47
2021/10/04 23:20:30;;;;;;;3.22;1.92;;;22.40;56.90;;;;;;31130125;28;20046;-43
2021/10/04 23:35:32;;;;;;;3.58;2.30;;;22.40;57.30;;;;;;31139157;28;20054;-48
2021/10/04 23:50:34;;;;;;;2.30;1.77;;;22.40;57.00;;;;;;31149291;28;20050;-45
